sensor_id;sensor_type;location;lat;lon;timestamp;temperature;humidity
1455;DHT22;721;48.168;12.818;2023-05-07T00:00:22;14.40;28.70
1455;DHT22;721;48.168;12.818;2023-05-07T00:02:49;14.40;29.00
1455;DHT22;721;48.168;12.818;2023-05-07T00:05:16;14.30;28.40
1455;DHT22;721;48.168;12.818;2023-05-07T00:07:42;14.30;29.60
1455;DHT22;721;48.168;12.818;2023-05-07T00:10:10;14.30;30.00
1455;DHT22;721;48.168;12.818;2023-05-07T00:12:37;14.30;30.40
1455;DHT22;721;48.168;12.818;2023-05-07T00:15:05;14.30;29.80
1455;DHT22;721;48.168;12.818;2023-05-07T00:17:34;14.30;29.80
1455;DHT22;721;48.168;12.818;2023-05-07T00:20:01;14.30;29.00
1455;DHT22;721;48.168;12.818;2023-05-07T00:22:29;14.10;32.60
1455;DHT22;721;48.168;12.818;2023-05-07T00:24:56;14.10;32.70
1455;DHT22;721;48.168;12.818;2023-05-07T00:27:23;14.10;34.00
1455;DHT22;721;48.168;12.818;2023-05-07T00:29:50;14.10;33.10
1455;DHT22;721;48.168;12.818;2023-05-07T00:32:17;14.20;33.30
1455;DHT22;721;48.168;12.818;2023-05-07T00:34:45;14.20;35.20
1455;DHT22;721;48.168;12.818;2023-05-07T00:37:12;14.20;34.50
1455;DHT22;721;48.168;12.818;2023-05-07T00:39:38;14.60;33.70
1455;DHT22;721;48.168;12.818;2023-05-07T00:42:05;14.40;33.50
1455;DHT22;721;48.168;12.818;2023-05-07T00:44:33;14.30;34.20
1455;DHT22;721;48.168;12.818;2023-05-07T00:47:02;14.40;34.30
1455;DHT22;721;48.168;12.818;2023-05-07T00:49:37;14.40;33.30
1455;DHT22;721;48.168;12.818;2023-05-07T00:52:06;14.40;34.70
1455;DHT22;721;48.168;12.818;2023-05-07T00:54:35;14.40;34.20
1455;DHT22;721;48.168;12.818;2023-05-07T00:57:02;14.40;33.80
1455;DHT22;721;48.168;12.818;2023-05-07T00:59:30;14.40;32.20
1455;DHT22;721;48.168;12.818;2023-05-07T01:01:58;14.40;32.40
1455;DHT22;721;48.168;12.818;2023-05-07T01:04:26;14.40;33.60
1455;DHT22;721;48.168;12.818;2023-05-07T01:06:54;14.40;32.90
1455;DHT22;721;48.168;12.818;2023-05-07T01:09:23;14.20;34.00
1455;DHT22;721;48.168;12.818;2023-05-07T01:11:52;14.20;33.80
1455;DHT22;721;48.168;12.818;2023-05-07T01:14:20;14.10;36.20
1455;DHT22;721;48.168;12.818;2023-05-07T01:16:47;14.10;35.40
1455;DHT22;721;48.168;12.818;2023-05-07T01:19:14;14.10;34.10
1455;DHT22;721;48.168;12.818;2023-05-07T01:21:45;14.20;33.70
1455;DHT22;721;48.168;12.818;2023-05-07T01:24:14;14.10;34.40
1455;DHT22;721;48.168;12.818;2023-05-07T01:26:43;14.00;38.60
1455;DHT22;721;48.168;12.818;2023-05-07T01:29:10;14.10;33.50
1455;DHT22;721;48.168;12.818;2023-05-07T01:31:37;14.20;32.60
1455;DHT22;721;48.168;12.818;2023-05-07T01:34:05;14.10;34.40
1455;DHT22;721;48.168;12.818;2023-05-07T01:36:34;14.00;35.60
1455;DHT22;721;48.168;12.818;2023-05-07T01:39:02;14.00;36.30
1455;DHT22;721;48.168;12.818;2023-05-07T01:41:31;13.90;39.30
1455;DHT22;721;48.168;12.818;2023-05-07T01:43:58;13.80;39.50
1455;DHT22;721;48.168;12.818;2023-05-07T01:46:26;13.80;39.10
1455;DHT22;721;48.168;12.818;2023-05-07T01:48:53;13.70;39.00
1455;DHT22;721;48.168;12.818;2023-05-07T01:51:20;13.70;41.20
1455;DHT22;721;48.168;12.818;2023-05-07T01:53:48;13.70;40.10
1455;DHT22;721;48.168;12.818;2023-05-07T01:56:16;13.80;39.10
1455;DHT22;721;48.168;12.818;2023-05-07T01:58:44;13.80;37.70
1455;DHT22;721;48.168;12.818;2023-05-07T02:01:12;13.80;39.10
1455;DHT22;721;48.168;12.818;2023-05-07T02:03:40;13.80;36.50
1455;DHT22;721;48.168;12.818;2023-05-07T02:06:06;13.80;38.10
1455;DHT22;721;48.168;12.818;2023-05-07T02:08:33;13.80;37.00
1455;DHT22;721;48.168;12.818;2023-05-07T02:11:00;13.90;37.40
1455;DHT22;721;48.168;12.818;2023-05-07T02:13:29;13.90;35.80
1455;DHT22;721;48.168;12.818;2023-05-07T02:15:57;13.90;32.70
1455;DHT22;721;48.168;12.818;2023-05-07T02:18:24;14.00;31.40
1455;DHT22;721;48.168;12.818;2023-05-07T02:20:51;14.10;31.70
1455;DHT22;721;48.168;12.818;2023-05-07T02:23:18;14.10;33.70
1455;DHT22;721;48.168;12.818;2023-05-07T02:25:44;14.00;34.60
1455;DHT22;721;48.168;12.818;2023-05-07T02:28:12;14.00;35.70
1455;DHT22;721;48.168;12.818;2023-05-07T02:30:39;13.70;40.10
1455;DHT22;721;48.168;12.818;2023-05-07T02:33:07;13.70;41.50
1455;DHT22;721;48.168;12.818;2023-05-07T02:35:34;13.70;39.60
1455;DHT22;721;48.168;12.818;2023-05-07T02:38:01;13.70;42.70
1455;DHT22;721;48.168;12.818;2023-05-07T02:40:28;13.70;41.80
1455;DHT22;721;48.168;12.818;2023-05-07T02:42:55;13.80;42.50
1455;DHT22;721;48.168;12.818;2023-05-07T02:45:22;13.70;42.10
1455;DHT22;721;48.168;12.818;2023-05-07T02:47:49;13.80;41.70
1455;DHT22;721;48.168;12.818;2023-05-07T02:50:17;13.80;41.70
1455;DHT22;721;48.168;12.818;2023-05-07T02:52:44;13.70;42.90
1455;DHT22;721;48.168;12.818;2023-05-07T02:55:11;13.80;42.00
1455;DHT22;721;48.168;12.818;2023-05-07T02:57:37;13.70;41.00
1455;DHT22;721;48.168;12.818;2023-05-07T03:00:12;13.70;42.10
1455;DHT22;721;48.168;12.818;2023-05-07T03:02:39;13.70;44.70
1455;DHT22;721;48.168;12.818;2023-05-07T03:05:06;13.60;46.30
1455;DHT22;721;48.168;12.818;2023-05-07T03:07:35;13.60;48.10
1455;DHT22;721;48.168;12.818;2023-05-07T03:10:02;13.50;50.30
1455;DHT22;721;48.168;12.818;2023-05-07T03:12:29;13.50;50.70
1455;DHT22;721;48.168;12.818;2023-05-07T03:14:56;13.50;50.70
1455;DHT22;721;48.168;12.818;2023-05-07T03:17:23;13.40;52.00
1455;DHT22;721;48.168;12.818;2023-05-07T03:19:50;13.40;52.40
1455;DHT22;721;48.168;12.818;2023-05-07T03:22:17;13.40;51.90
1455;DHT22;721;48.168;12.818;2023-05-07T03:24:45;13.40;53.00
1455;DHT22;721;48.168;12.818;2023-05-07T03:27:12;13.40;52.00
1455;DHT22;721;48.168;12.818;2023-05-07T03:29:38;13.40;51.90
1455;DHT22;721;48.168;12.818;2023-05-07T03:32:05;13.40;51.80
1455;DHT22;721;48.168;12.818;2023-05-07T03:34:32;13.40;51.70
1455;DHT22;721;48.168;12.818;2023-05-07T03:37:00;13.80;52.30
1455;DHT22;721;48.168;12.818;2023-05-07T03:39:27;13.40;53.10
1455;DHT22;721;48.168;12.818;2023-05-07T03:41:55;13.30;53.30
1455;DHT22;721;48.168;12.818;2023-05-07T03:44:22;13.30;54.60
1455;DHT22;721;48.168;12.818;2023-05-07T03:46:49;13.30;53.00
1455;DHT22;721;48.168;12.818;2023-05-07T03:49:15;13.10;54.80
1455;DHT22;721;48.168;12.818;2023-05-07T03:51:42;13.00;56.60
1455;DHT22;721;48.168;12.818;2023-05-07T03:54:09;13.30;56.60
1455;DHT22;721;48.168;12.818;2023-05-07T03:56:36;13.10;55.50
1455;DHT22;721;48.168;12.818;2023-05-07T03:59:04;13.10;54.60
1455;DHT22;721;48.168;12.818;2023-05-07T04:01:31;13.20;52.90
1455;DHT22;721;48.168;12.818;2023-05-07T04:03:58;13.20;52.50
1455;DHT22;721;48.168;12.818;2023-05-07T04:06:24;13.30;53.30
1455;DHT22;721;48.168;12.818;2023-05-07T04:08:51;13.30;53.00
1455;DHT22;721;48.168;12.818;2023-05-07T04:11:18;13.30;52.40
1455;DHT22;721;48.168;12.818;2023-05-07T04:13:45;13.40;49.10
1455;DHT22;721;48.168;12.818;2023-05-07T04:16:14;13.50;48.50
1455;DHT22;721;48.168;12.818;2023-05-07T04:18:41;13.40;48.80
1455;DHT22;721;48.168;12.818;2023-05-07T04:21:14;13.50;49.30
1455;DHT22;721;48.168;12.818;2023-05-07T04:23:41;13.50;51.10
1455;DHT22;721;48.168;12.818;2023-05-07T04:26:08;13.50;48.70
1455;DHT22;721;48.168;12.818;2023-05-07T04:28:35;13.50;48.30
1455;DHT22;721;48.168;12.818;2023-05-07T04:31:01;13.40;49.60
1455;DHT22;721;48.168;12.818;2023-05-07T04:33:29;13.40;49.30
1455;DHT22;721;48.168;12.818;2023-05-07T04:35:56;13.50;50.60
1455;DHT22;721;48.168;12.818;2023-05-07T04:38:23;13.50;51.30
1455;DHT22;721;48.168;12.818;2023-05-07T04:40:50;13.50;52.70
1455;DHT22;721;48.168;12.818;2023-05-07T04:43:17;13.50;50.40
1455;DHT22;721;48.168;12.818;2023-05-07T04:45:44;13.60;49.10
1455;DHT22;721;48.168;12.818;2023-05-07T04:48:11;13.70;48.00
1455;DHT22;721;48.168;12.818;2023-05-07T04:50:41;13.70;47.50
1455;DHT22;721;48.168;12.818;2023-05-07T04:53:08;13.70;47.50
1455;DHT22;721;48.168;12.818;2023-05-07T04:55:34;13.80;48.00
1455;DHT22;721;48.168;12.818;2023-05-07T04:58:01;13.70;47.10
1455;DHT22;721;48.168;12.818;2023-05-07T05:00:28;13.90;46.50
1455;DHT22;721;48.168;12.818;2023-05-07T05:02:55;13.80;50.00
1455;DHT22;721;48.168;12.818;2023-05-07T05:05:22;13.80;50.10
1455;DHT22;721;48.168;12.818;2023-05-07T05:07:50;13.80;51.50
1455;DHT22;721;48.168;12.818;2023-05-07T05:10:17;13.80;49.70
1455;DHT22;721;48.168;12.818;2023-05-07T05:12:44;13.90;51.10
1455;DHT22;721;48.168;12.818;2023-05-07T05:15:11;13.90;52.10
1455;DHT22;721;48.168;12.818;2023-05-07T05:17:38;14.00;51.40
1455;DHT22;721;48.168;12.818;2023-05-07T05:20:06;14.10;50.60
1455;DHT22;721;48.168;12.818;2023-05-07T05:22:33;14.20;49.90
1455;DHT22;721;48.168;12.818;2023-05-07T05:25:01;14.30;47.80
1455;DHT22;721;48.168;12.818;2023-05-07T05:27:28;14.40;47.20
1455;DHT22;721;48.168;12.818;2023-05-07T05:29:55;14.30;49.20
1455;DHT22;721;48.168;12.818;2023-05-07T05:32:22;14.30;49.30
1455;DHT22;721;48.168;12.818;2023-05-07T05:34:49;14.40;47.80
1455;DHT22;721;48.168;12.818;2023-05-07T05:37:16;14.50;48.10
1455;DHT22;721;48.168;12.818;2023-05-07T05:39:43;14.50;49.00
1455;DHT22;721;48.168;12.818;2023-05-07T05:42:11;14.60;48.00
1455;DHT22;721;48.168;12.818;2023-05-07T05:44:38;14.70;46.80
1455;DHT22;721;48.168;12.818;2023-05-07T05:47:05;14.80;46.10
1455;DHT22;721;48.168;12.818;2023-05-07T05:49:31;14.80;44.90
1455;DHT22;721;48.168;12.818;2023-05-07T05:51:58;14.90;44.20
1455;DHT22;721;48.168;12.818;2023-05-07T05:54:25;14.90;46.40
1455;DHT22;721;48.168;12.818;2023-05-07T05:56:52;15.00;44.10
1455;DHT22;721;48.168;12.818;2023-05-07T05:59:20;15.10;44.60
1455;DHT22;721;48.168;12.818;2023-05-07T06:01:47;15.10;43.00
1455;DHT22;721;48.168;12.818;2023-05-07T06:04:14;15.30;42.90
1455;DHT22;721;48.168;12.818;2023-05-07T06:06:40;15.30;41.80
1455;DHT22;721;48.168;12.818;2023-05-07T06:09:07;15.40;41.10
1455;DHT22;721;48.168;12.818;2023-05-07T06:11:34;15.50;39.10
1455;DHT22;721;48.168;12.818;2023-05-07T06:14:01;15.60;37.70
1455;DHT22;721;48.168;12.818;2023-05-07T06:16:29;15.70;36.40
1455;DHT22;721;48.168;12.818;2023-05-07T06:18:56;15.80;35.80
1455;DHT22;721;48.168;12.818;2023-05-07T06:21:23;16.00;34.60
1455;DHT22;721;48.168;12.818;2023-05-07T06:23:49;16.10;34.20
1455;DHT22;721;48.168;12.818;2023-05-07T06:26:17;16.20;34.00
1455;DHT22;721;48.168;12.818;2023-05-07T06:28:44;16.30;33.50
1455;DHT22;721;48.168;12.818;2023-05-07T06:31:12;16.40;30.20
1455;DHT22;721;48.168;12.818;2023-05-07T06:33:40;16.60;32.60
1455;DHT22;721;48.168;12.818;2023-05-07T06:36:07;16.60;30.00
1455;DHT22;721;48.168;12.818;2023-05-07T06:38:34;16.70;28.90
1455;DHT22;721;48.168;12.818;2023-05-07T06:41:01;17.10;30.00
1455;DHT22;721;48.168;12.818;2023-05-07T06:43:28;16.80;31.90
1455;DHT22;721;48.168;12.818;2023-05-07T06:45:54;17.00;29.50
1455;DHT22;721;48.168;12.818;2023-05-07T06:48:21;17.10;28.40
1455;DHT22;721;48.168;12.818;2023-05-07T06:50:50;17.20;28.60
1455;DHT22;721;48.168;12.818;2023-05-07T06:53:16;17.30;28.70
1455;DHT22;721;48.168;12.818;2023-05-07T06:55:43;17.40;28.30
1455;DHT22;721;48.168;12.818;2023-05-07T06:58:10;17.40;28.50
1455;DHT22;721;48.168;12.818;2023-05-07T07:00:37;17.50;29.10
1455;DHT22;721;48.168;12.818;2023-05-07T07:03:04;17.80;25.90
1455;DHT22;721;48.168;12.818;2023-05-07T07:05:31;17.90;25.60
1455;DHT22;721;48.168;12.818;2023-05-07T07:07:59;18.00;25.60
1455;DHT22;721;48.168;12.818;2023-05-07T07:10:25;18.10;25.90
1455;DHT22;721;48.168;12.818;2023-05-07T07:12:52;18.30;24.80
1455;DHT22;721;48.168;12.818;2023-05-07T07:15:19;18.40;23.20
1455;DHT22;721;48.168;12.818;2023-05-07T07:17:47;18.60;25.00
1455;DHT22;721;48.168;12.818;2023-05-07T07:20:14;18.50;23.70
1455;DHT22;721;48.168;12.818;2023-05-07T07:22:41;18.90;24.10
1455;DHT22;721;48.168;12.818;2023-05-07T07:25:10;18.80;21.10
1455;DHT22;721;48.168;12.818;2023-05-07T07:27:37;18.80;21.10
1455;DHT22;721;48.168;12.818;2023-05-07T07:30:07;19.10;18.00
1455;DHT22;721;48.168;12.818;2023-05-07T07:32:34;19.10;16.20
1455;DHT22;721;48.168;12.818;2023-05-07T07:35:01;19.50;17.60
1455;DHT22;721;48.168;12.818;2023-05-07T07:37:28;19.30;14.70
1455;DHT22;721;48.168;12.818;2023-05-07T07:39:55;19.30;15.00
1455;DHT22;721;48.168;12.818;2023-05-07T07:42:23;19.20;14.20
1455;DHT22;721;48.168;12.818;2023-05-07T07:44:50;19.20;16.40
1455;DHT22;721;48.168;12.818;2023-05-07T07:47:17;19.20;17.70
1455;DHT22;721;48.168;12.818;2023-05-07T07:49:44;19.20;18.50
1455;DHT22;721;48.168;12.818;2023-05-07T07:52:10;19.40;17.60
1455;DHT22;721;48.168;12.818;2023-05-07T07:54:37;19.60;16.00
1455;DHT22;721;48.168;12.818;2023-05-07T07:57:04;19.60;15.10
1455;DHT22;721;48.168;12.818;2023-05-07T07:59:32;20.20;15.30
1455;DHT22;721;48.168;12.818;2023-05-07T08:01:59;20.00;13.40
1455;DHT22;721;48.168;12.818;2023-05-07T08:04:26;19.80;12.30
1455;DHT22;721;48.168;12.818;2023-05-07T08:06:53;19.70;11.20
1455;DHT22;721;48.168;12.818;2023-05-07T08:09:21;20.00;12.30
1455;DHT22;721;48.168;12.818;2023-05-07T08:11:48;19.50;12.30
1455;DHT22;721;48.168;12.818;2023-05-07T08:14:15;19.80;14.50
1455;DHT22;721;48.168;12.818;2023-05-07T08:16:43;20.10;14.60
1455;DHT22;721;48.168;12.818;2023-05-07T08:19:10;20.00;15.20
1455;DHT22;721;48.168;12.818;2023-05-07T08:21:38;20.10;14.80
1455;DHT22;721;48.168;12.818;2023-05-07T08:24:06;20.20;14.80
1455;DHT22;721;48.168;12.818;2023-05-07T08:26:33;20.00;11.00
1455;DHT22;721;48.168;12.818;2023-05-07T08:29:01;19.90;13.90
1455;DHT22;721;48.168;12.818;2023-05-07T08:31:28;19.80;14.30
1455;DHT22;721;48.168;12.818;2023-05-07T08:33:56;19.90;16.00
1455;DHT22;721;48.168;12.818;2023-05-07T08:36:23;20.00;14.60
1455;DHT22;721;48.168;12.818;2023-05-07T08:38:51;20.00;13.90
1455;DHT22;721;48.168;12.818;2023-05-07T08:41:18;20.00;14.40
1455;DHT22;721;48.168;12.818;2023-05-07T08:43:47;20.30;12.30
1455;DHT22;721;48.168;12.818;2023-05-07T08:46:17;20.10;13.20
1455;DHT22;721;48.168;12.818;2023-05-07T08:48:44;20.30;14.10
1455;DHT22;721;48.168;12.818;2023-05-07T08:51:15;20.00;12.60
1455;DHT22;721;48.168;12.818;2023-05-07T08:53:42;20.30;11.80
1455;DHT22;721;48.168;12.818;2023-05-07T08:56:10;20.40;12.00
1455;DHT22;721;48.168;12.818;2023-05-07T08:58:37;20.20;13.50
1455;DHT22;721;48.168;12.818;2023-05-07T09:01:09;20.30;13.60
1455;DHT22;721;48.168;12.818;2023-05-07T09:03:37;20.50;10.80
1455;DHT22;721;48.168;12.818;2023-05-07T09:06:04;20.50;9.60
1455;DHT22;721;48.168;12.818;2023-05-07T09:08:34;20.50;9.40
1455;DHT22;721;48.168;12.818;2023-05-07T09:11:01;20.60;11.80
1455;DHT22;721;48.168;12.818;2023-05-07T09:13:28;20.80;10.90
1455;DHT22;721;48.168;12.818;2023-05-07T09:15:55;20.60;12.50
1455;DHT22;721;48.168;12.818;2023-05-07T09:18:23;20.70;11.50
1455;DHT22;721;48.168;12.818;2023-05-07T09:20:50;20.70;11.50
1455;DHT22;721;48.168;12.818;2023-05-07T09:23:17;20.80;13.10
1455;DHT22;721;48.168;12.818;2023-05-07T09:25:45;21.10;11.20
1455;DHT22;721;48.168;12.818;2023-05-07T09:28:12;20.90;10.30
1455;DHT22;721;48.168;12.818;2023-05-07T09:30:39;21.20;9.30
1455;DHT22;721;48.168;12.818;2023-05-07T09:33:05;21.80;9.90
1455;DHT22;721;48.168;12.818;2023-05-07T09:35:32;21.30;9.10
1455;DHT22;721;48.168;12.818;2023-05-07T09:38:00;21.40;4.50
1455;DHT22;721;48.168;12.818;2023-05-07T09:40:29;21.60;6.60
1455;DHT22;721;48.168;12.818;2023-05-07T09:43:09;21.40;7.20
1455;DHT22;721;48.168;12.818;2023-05-07T09:45:37;21.70;9.40
1455;DHT22;721;48.168;12.818;2023-05-07T09:48:05;21.50;7.60
1455;DHT22;721;48.168;12.818;2023-05-07T09:50:36;21.60;2.50
1455;DHT22;721;48.168;12.818;2023-05-07T09:53:03;21.60;3.00
1455;DHT22;721;48.168;12.818;2023-05-07T09:55:31;21.50;3.70
1455;DHT22;721;48.168;12.818;2023-05-07T09:57:59;21.50;1.90
1455;DHT22;721;48.168;12.818;2023-05-07T10:00:28;21.90;5.90
1455;DHT22;721;48.168;12.818;2023-05-07T10:02:57;21.70;2.00
1455;DHT22;721;48.168;12.818;2023-05-07T10:05:25;22.00;3.00
1455;DHT22;721;48.168;12.818;2023-05-07T10:07:53;21.80;2.80
1455;DHT22;721;48.168;12.818;2023-05-07T10:10:21;21.80;3.40
1455;DHT22;721;48.168;12.818;2023-05-07T10:12:49;21.90;3.40
1455;DHT22;721;48.168;12.818;2023-05-07T10:15:18;22.20;2.40
1455;DHT22;721;48.168;12.818;2023-05-07T10:17:45;22.00;3.20
1455;DHT22;721;48.168;12.818;2023-05-07T10:20:13;22.10;3.70
1455;DHT22;721;48.168;12.818;2023-05-07T10:22:43;22.20;3.20
1455;DHT22;721;48.168;12.818;2023-05-07T10:25:17;22.70;3.80
1455;DHT22;721;48.168;12.818;2023-05-07T10:27:46;22.40;2.50
1455;DHT22;721;48.168;12.818;2023-05-07T10:30:21;22.60;1.00
1455;DHT22;721;48.168;12.818;2023-05-07T10:32:55;22.60;1.00
1455;DHT22;721;48.168;12.818;2023-05-07T10:35:26;22.60;1.00
1455;DHT22;721;48.168;12.818;2023-05-07T10:37:53;22.70;1.00
1455;DHT22;721;48.168;12.818;2023-05-07T10:40:20;22.80;1.00
1455;DHT22;721;48.168;12.818;2023-05-07T10:42:54;22.70;1.00
1455;DHT22;721;48.168;12.818;2023-05-07T10:45:24;22.80;1.00
1455;DHT22;721;48.168;12.818;2023-05-07T10:48:08;22.90;1.00
1455;DHT22;721;48.168;12.818;2023-05-07T10:50:35;22.90;1.00
1455;DHT22;721;48.168;12.818;2023-05-07T10:53:21;22.90;1.00
1455;DHT22;721;48.168;12.818;2023-05-07T10:55:50;22.90;1.00
1455;DHT22;721;48.168;12.818;2023-05-07T10:58:24;23.00;1.00
1455;DHT22;721;48.168;12.818;2023-05-07T11:00:56;22.90;1.00
1455;DHT22;721;48.168;12.818;2023-05-07T11:03:23;23.00;1.00
1455;DHT22;721;48.168;12.818;2023-05-07T11:06:09;23.10;1.00
1455;DHT22;721;48.168;12.818;2023-05-07T11:08:55;23.00;1.00
1455;DHT22;721;48.168;12.818;2023-05-07T11:11:46;23.10;1.00
1455;DHT22;721;48.168;12.818;2023-05-07T11:14:13;23.10;1.00
1455;DHT22;721;48.168;12.818;2023-05-07T11:16:43;23.10;1.00
1455;DHT22;721;48.168;12.818;2023-05-07T11:19:10;23.20;1.00
1455;DHT22;721;48.168;12.818;2023-05-07T11:21:38;23.30;1.00
1455;DHT22;721;48.168;12.818;2023-05-07T11:24:06;23.30;1.00
1455;DHT22;721;48.168;12.818;2023-05-07T11:26:46;23.30;1.00
1455;DHT22;721;48.168;12.818;2023-05-07T11:29:14;23.30;1.00
1455;DHT22;721;48.168;12.818;2023-05-07T11:31:42;23.40;1.00
1455;DHT22;721;48.168;12.818;2023-05-07T11:34:11;23.30;1.00
1455;DHT22;721;48.168;12.818;2023-05-07T11:36:42;23.40;1.00
1455;DHT22;721;48.168;12.818;2023-05-07T11:39:26;23.60;1.00
1455;DHT22;721;48.168;12.818;2023-05-07T11:41:53;23.60;1.00
1455;DHT22;721;48.168;12.818;2023-05-07T11:44:20;23.70;1.00
1455;DHT22;721;48.168;12.818;2023-05-07T11:46:49;23.70;1.00
1455;DHT22;721;48.168;12.818;2023-05-07T11:49:16;23.90;1.00
1455;DHT22;721;48.168;12.818;2023-05-07T11:51:43;23.90;1.00
1455;DHT22;721;48.168;12.818;2023-05-07T11:54:12;23.90;1.00
1455;DHT22;721;48.168;12.818;2023-05-07T11:56:41;23.90;1.00
1455;DHT22;721;48.168;12.818;2023-05-07T11:59:08;23.90;1.00
1455;DHT22;721;48.168;12.818;2023-05-07T12:01:35;23.90;1.00
1455;DHT22;721;48.168;12.818;2023-05-07T12:04:04;23.90;1.00
1455;DHT22;721;48.168;12.818;2023-05-07T12:06:35;24.00;1.00
1455;DHT22;721;48.168;12.818;2023-05-07T12:09:02;24.00;1.00
1455;DHT22;721;48.168;12.818;2023-05-07T12:11:30;23.90;1.00
1455;DHT22;721;48.168;12.818;2023-05-07T12:13:57;24.00;1.00
1455;DHT22;721;48.168;12.818;2023-05-07T12:16:24;24.00;1.00
1455;DHT22;721;48.168;12.818;2023-05-07T12:18:51;24.00;1.00
1455;DHT22;721;48.168;12.818;2023-05-07T12:21:21;24.10;1.00
1455;DHT22;721;48.168;12.818;2023-05-07T12:23:49;24.10;1.00
1455;DHT22;721;48.168;12.818;2023-05-07T12:26:16;24.20;1.00
1455;DHT22;721;48.168;12.818;2023-05-07T12:28:46;24.30;1.00
1455;DHT22;721;48.168;12.818;2023-05-07T12:31:14;24.20;1.00
1455;DHT22;721;48.168;12.818;2023-05-07T12:33:41;24.20;1.00
1455;DHT22;721;48.168;12.818;2023-05-07T12:36:08;24.10;1.00
1455;DHT22;721;48.168;12.818;2023-05-07T12:38:38;24.20;1.00
1455;DHT22;721;48.168;12.818;2023-05-07T12:41:07;24.20;1.00
1455;DHT22;721;48.168;12.818;2023-05-07T12:43:34;24.20;1.00
1455;DHT22;721;48.168;12.818;2023-05-07T12:46:04;24.10;1.00
1455;DHT22;721;48.168;12.818;2023-05-07T12:48:31;24.00;1.00
1455;DHT22;721;48.168;12.818;2023-05-07T12:50:59;24.00;1.00
1455;DHT22;721;48.168;12.818;2023-05-07T12:53:27;24.20;1.00
1455;DHT22;721;48.168;12.818;2023-05-07T12:55:57;24.30;1.00
1455;DHT22;721;48.168;12.818;2023-05-07T12:58:26;24.50;1.00
1455;DHT22;721;48.168;12.818;2023-05-07T13:00:54;24.50;1.00
1455;DHT22;721;48.168;12.818;2023-05-07T13:03:27;24.50;1.00
1455;DHT22;721;48.168;12.818;2023-05-07T13:05:55;24.40;1.00
1455;DHT22;721;48.168;12.818;2023-05-07T13:08:27;24.70;1.00
1455;DHT22;721;48.168;12.818;2023-05-07T13:10:56;24.70;1.00
1455;DHT22;721;48.168;12.818;2023-05-07T13:13:23;24.70;1.00
1455;DHT22;721;48.168;12.818;2023-05-07T13:15:50;24.60;1.00
1455;DHT22;721;48.168;12.818;2023-05-07T13:18:17;24.60;1.00
1455;DHT22;721;48.168;12.818;2023-05-07T13:20:44;24.60;1.00
1455;DHT22;721;48.168;12.818;2023-05-07T13:23:11;24.60;1.00
1455;DHT22;721;48.168;12.818;2023-05-07T13:25:37;24.80;1.00
1455;DHT22;721;48.168;12.818;2023-05-07T13:28:06;25.00;1.00
1455;DHT22;721;48.168;12.818;2023-05-07T13:30:32;25.10;1.00
1455;DHT22;721;48.168;12.818;2023-05-07T13:33:00;25.10;1.00
1455;DHT22;721;48.168;12.818;2023-05-07T13:35:27;25.00;1.00
1455;DHT22;721;48.168;12.818;2023-05-07T13:37:53;25.00;1.00
1455;DHT22;721;48.168;12.818;2023-05-07T13:40:21;25.10;1.00
1455;DHT22;721;48.168;12.818;2023-05-07T13:42:48;25.00;1.00
1455;DHT22;721;48.168;12.818;2023-05-07T13:45:17;24.90;1.00
1455;DHT22;721;48.168;12.818;2023-05-07T13:47:44;24.80;1.00
1455;DHT22;721;48.168;12.818;2023-05-07T13:50:12;24.80;1.00
1455;DHT22;721;48.168;12.818;2023-05-07T13:52:41;24.90;1.00
1455;DHT22;721;48.168;12.818;2023-05-07T13:55:11;24.90;1.00
1455;DHT22;721;48.168;12.818;2023-05-07T13:57:38;25.00;1.00
1455;DHT22;721;48.168;12.818;2023-05-07T14:00:06;24.80;1.00
1455;DHT22;721;48.168;12.818;2023-05-07T14:02:34;24.90;1.00
1455;DHT22;721;48.168;12.818;2023-05-07T14:05:01;25.00;1.00
1455;DHT22;721;48.168;12.818;2023-05-07T14:07:27;25.10;1.00
1455;DHT22;721;48.168;12.818;2023-05-07T14:09:54;25.20;1.00
1455;DHT22;721;48.168;12.818;2023-05-07T14:12:22;25.00;1.00
1455;DHT22;721;48.168;12.818;2023-05-07T14:14:49;25.20;1.00
1455;DHT22;721;48.168;12.818;2023-05-07T14:17:16;25.10;1.00
1455;DHT22;721;48.168;12.818;2023-05-07T14:19:44;25.00;1.00
1455;DHT22;721;48.168;12.818;2023-05-07T14:22:13;25.20;1.00
1455;DHT22;721;48.168;12.818;2023-05-07T14:24:40;24.80;1.00
1455;DHT22;721;48.168;12.818;2023-05-07T14:27:06;24.90;1.00
1455;DHT22;721;48.168;12.818;2023-05-07T14:29:40;24.80;1.00
1455;DHT22;721;48.168;12.818;2023-05-07T14:32:11;25.00;1.00
1455;DHT22;721;48.168;12.818;2023-05-07T14:34:38;25.40;1.00
1455;DHT22;721;48.168;12.818;2023-05-07T14:37:06;25.00;1.00
1455;DHT22;721;48.168;12.818;2023-05-07T14:39:33;25.20;1.00
1455;DHT22;721;48.168;12.818;2023-05-07T14:41:59;24.80;1.00
1455;DHT22;721;48.168;12.818;2023-05-07T14:44:26;24.90;1.00
1455;DHT22;721;48.168;12.818;2023-05-07T14:46:53;25.00;1.00
1455;DHT22;721;48.168;12.818;2023-05-07T14:49:20;24.90;1.00
1455;DHT22;721;48.168;12.818;2023-05-07T14:51:47;25.00;1.00
1455;DHT22;721;48.168;12.818;2023-05-07T14:54:15;25.20;1.00
1455;DHT22;721;48.168;12.818;2023-05-07T14:56:42;25.40;1.00
1455;DHT22;721;48.168;12.818;2023-05-07T14:59:09;25.40;1.00
1455;DHT22;721;48.168;12.818;2023-05-07T15:01:37;25.30;1.00
1455;DHT22;721;48.168;12.818;2023-05-07T15:04:05;25.10;1.00
1455;DHT22;721;48.168;12.818;2023-05-07T15:06:32;25.30;1.00
1455;DHT22;721;48.168;12.818;2023-05-07T15:08:59;25.50;1.00
1455;DHT22;721;48.168;12.818;2023-05-07T15:11:27;25.30;1.00
1455;DHT22;721;48.168;12.818;2023-05-07T15:13:54;25.30;1.00
1455;DHT22;721;48.168;12.818;2023-05-07T15:16:21;25.10;1.00
1455;DHT22;721;48.168;12.818;2023-05-07T15:18:48;25.20;1.00
1455;DHT22;721;48.168;12.818;2023-05-07T15:21:15;25.10;1.00
1455;DHT22;721;48.168;12.818;2023-05-07T15:23:42;25.10;1.00
1455;DHT22;721;48.168;12.818;2023-05-07T15:26:09;25.00;1.00
1455;DHT22;721;48.168;12.818;2023-05-07T15:28:38;25.00;1.00
1455;DHT22;721;48.168;12.818;2023-05-07T15:31:05;25.00;1.00
1455;DHT22;721;48.168;12.818;2023-05-07T15:33:32;25.10;1.00
1455;DHT22;721;48.168;12.818;2023-05-07T15:35:59;25.10;1.00
1455;DHT22;721;48.168;12.818;2023-05-07T15:38:26;24.90;1.00
1455;DHT22;721;48.168;12.818;2023-05-07T15:40:53;24.80;1.00
1455;DHT22;721;48.168;12.818;2023-05-07T15:43:20;24.80;1.00
1455;DHT22;721;48.168;12.818;2023-05-07T15:45:48;24.70;1.00
1455;DHT22;721;48.168;12.818;2023-05-07T15:48:15;24.60;1.00
1455;DHT22;721;48.168;12.818;2023-05-07T15:50:42;24.50;1.00
1455;DHT22;721;48.168;12.818;2023-05-07T15:53:09;24.40;1.00
1455;DHT22;721;48.168;12.818;2023-05-07T15:55:39;24.20;1.00
1455;DHT22;721;48.168;12.818;2023-05-07T15:58:07;24.20;1.00
1455;DHT22;721;48.168;12.818;2023-05-07T16:00:34;24.00;1.00
1455;DHT22;721;48.168;12.818;2023-05-07T16:03:03;23.90;1.00
1455;DHT22;721;48.168;12.818;2023-05-07T16:05:30;23.90;1.00
1455;DHT22;721;48.168;12.818;2023-05-07T16:07:57;23.80;1.00
1455;DHT22;721;48.168;12.818;2023-05-07T16:10:24;23.60;1.00
1455;DHT22;721;48.168;12.818;2023-05-07T16:12:52;23.50;1.00